Riihimaki, Suomi

24. tammikuuta 2019 klo 14:01 (EET) (GMT +0200)
Kajaani | | Change Station

Kork 469 ft 64.28 °N, 27.68 °E | Updated 11 minutes ago

Lumisadetta
Lumisadetta
-17 °F
Tuntuu kuin -27 °F
N
4
Tuuli Suunnaltaan vaihteleva Tuuli ilmansuunnasta Länsi

Tänään
Korkea -- | Matala -- °F
--% Sateen mahd.
Eilen
Korkea -- | Matala -- °F
Precip. -- tuumaa
Ilmanpaine 30.09 tuumaa
Näkyvyys 2.5 mailia
Pilviä Pilvistä 300 ft
Tuulen hyytävyys -27 °F
Kastepiste -22 °F
Ilmankosteus 76%
Sademäärä 0.00 tuumaa
Lumensyvyys Ei saatavilla
9:06 AM 3:22 PM
Vähenevä kupera kuu, 85% visible
METAR EFKI 241150Z 27003KT 4000 -SN BKN003 M27/M30 Q1019
Ilmanpaine 30.09 tuumaa
Näkyvyys 2.5 mailia
Pilviä Pilvistä 300 ft
Tuulen hyytävyys -27 °F
Kastepiste -22 °F
Ilmankosteus 76%
Sademäärä 0.00 tuumaa
Lumensyvyys Ei saatavilla
9:06 AM 3:22 PM
Vähenevä kupera kuu, 85% visible
METAR EFKI 241150Z 27003KT 4000 -SN BKN003 M27/M30 Q1019

Get Severe Weather Alerts

Thanks for signing up!

Be on the lookout for a verification email in your inbox.

You'll start receiving the daily forecast at 6 AM.

×

10-Day Weather Forecast

×

Almanac

Tähtitiede

Jan. 24, 2019 Nousuaika Laskuaika
Valoisa aika
Porvarillinen hämärä
Nauttinen hämärä
Astronominen hämärä
Kuu
Näkyvän valon pituus
Päivän pituus
Tomorrow will be .
, % of the Moon is Illuminated

Tämän päivän ennätykset

Country Highs Country Lows

Community

WunderPhotos

Category 6

Welcome to Category 6. This is the collective home for Weather Underground's featured writeups by Dr. Jeff Masters (right), Bob Henson (left), Chris Burt, and other regular contributors.

Nearby

Ilmanlaatu

  Ilmanlaatu AQ Index Pollutant
Not available.

Lumensyvyys

Station Depth Korkeus

Maanjäristysaktiivisuus

Paikkakunta Distance Mag. Time & Date
Minimum magnitude displayed is 2.5.

Coastal Water Temperatures

Paikka Lämpötila

Stations

Lähimmät sääasemat

Aseman sijainti Lämpötila Tuulen hyytävyys Kastepiste Ilmankosteus Tuuli Precip. Kork Päivitetty Tyyppi